sensor_id;sensor_type;location;lat;lon;timestamp;P1;durP1;ratioP1;P2;durP2;ratioP2
19687;SDS011;9993;52.008;4.732;2023-02-26T00:01:22;3.63;;;2.67;;
19687;SDS011;9993;52.008;4.732;2023-02-26T00:03:49;2.80;;;2.60;;
19687;SDS011;9993;52.008;4.732;2023-02-26T00:06:14;6.47;;;3.30;;
19687;SDS011;9993;52.008;4.732;2023-02-26T00:08:39;4.17;;;3.07;;
19687;SDS011;9993;52.008;4.732;2023-02-26T00:11:05;5.63;;;3.37;;
19687;SDS011;9993;52.008;4.732;2023-02-26T00:13:31;4.63;;;3.10;;
19687;SDS011;9993;52.008;4.732;2023-02-26T00:15:57;5.30;;;2.90;;
19687;SDS011;9993;52.008;4.732;2023-02-26T00:18:23;4.13;;;2.80;;
19687;SDS011;9993;52.008;4.732;2023-02-26T00:20:48;4.37;;;2.90;;
19687;SDS011;9993;52.008;4.732;2023-02-26T00:23:14;6.40;;;3.20;;
19687;SDS011;9993;52.008;4.732;2023-02-26T00:25:39;8.07;;;3.00;;
19687;SDS011;9993;52.008;4.732;2023-02-26T00:28:05;4.83;;;2.60;;
19687;SDS011;9993;52.008;4.732;2023-02-26T00:30:30;6.63;;;2.60;;
19687;SDS011;9993;52.008;4.732;2023-02-26T00:32:56;6.13;;;3.10;;
19687;SDS011;9993;52.008;4.732;2023-02-26T00:35:21;3.53;;;2.47;;
19687;SDS011;9993;52.008;4.732;2023-02-26T00:42:49;3.30;;;2.87;;
19687;SDS011;9993;52.008;4.732;2023-02-26T00:45:14;3.93;;;2.63;;
19687;SDS011;9993;52.008;4.732;2023-02-26T00:47:43;6.70;;;2.80;;
19687;SDS011;9993;52.008;4.732;2023-02-26T00:50:15;5.27;;;2.90;;
19687;SDS011;9993;52.008;4.732;2023-02-26T00:55:40;8.47;;;3.50;;
19687;SDS011;9993;52.008;4.732;2023-02-26T00:58:05;6.20;;;3.03;;
19687;SDS011;9993;52.008;4.732;2023-02-26T01:00:32;6.37;;;1.80;;
19687;SDS011;9993;52.008;4.732;2023-02-26T01:02:57;6.10;;;2.80;;
19687;SDS011;9993;52.008;4.732;2023-02-26T01:05:23;3.83;;;2.53;;
19687;SDS011;9993;52.008;4.732;2023-02-26T01:10:32;4.63;;;2.57;;
19687;SDS011;9993;52.008;4.732;2023-02-26T01:12:57;3.00;;;2.10;;
19687;SDS011;9993;52.008;4.732;2023-02-26T01:15:23;4.93;;;2.20;;
19687;SDS011;9993;52.008;4.732;2023-02-26T01:17:58;4.87;;;2.23;;
19687;SDS011;9993;52.008;4.732;2023-02-26T01:20:36;5.87;;;2.53;;
19687;SDS011;9993;52.008;4.732;2023-02-26T01:23:04;3.87;;;2.10;;
19687;SDS011;9993;52.008;4.732;2023-02-26T01:25:40;3.03;;;2.30;;
19687;SDS011;9993;52.008;4.732;2023-02-26T01:28:07;6.23;;;2.30;;
19687;SDS011;9993;52.008;4.732;2023-02-26T01:30:32;2.47;;;1.83;;
19687;SDS011;9993;52.008;4.732;2023-02-26T01:33:00;6.37;;;2.20;;
19687;SDS011;9993;52.008;4.732;2023-02-26T01:35:37;5.93;;;2.10;;
19687;SDS011;9993;52.008;4.732;2023-02-26T01:48:49;3.00;;;1.90;;
19687;SDS011;9993;52.008;4.732;2023-02-26T01:51:14;5.80;;;1.90;;
19687;SDS011;9993;52.008;4.732;2023-02-26T01:53:39;2.57;;;1.63;;
19687;SDS011;9993;52.008;4.732;2023-02-26T01:56:11;2.77;;;1.60;;
19687;SDS011;9993;52.008;4.732;2023-02-26T01:58:37;4.97;;;2.00;;
19687;SDS011;9993;52.008;4.732;2023-02-26T02:01:02;6.93;;;2.47;;
19687;SDS011;9993;52.008;4.732;2023-02-26T02:03:29;3.77;;;1.63;;
19687;SDS011;9993;52.008;4.732;2023-02-26T02:05:57;3.90;;;1.60;;
19687;SDS011;9993;52.008;4.732;2023-02-26T02:08:24;4.90;;;2.00;;
19687;SDS011;9993;52.008;4.732;2023-02-26T02:10:49;2.40;;;1.67;;
19687;SDS011;9993;52.008;4.732;2023-02-26T02:13:27;4.10;;;1.50;;
19687;SDS011;9993;52.008;4.732;2023-02-26T02:26:34;1.93;;;1.63;;
19687;SDS011;9993;52.008;4.732;2023-02-26T02:31:34;4.27;;;2.23;;
19687;SDS011;9993;52.008;4.732;2023-02-26T02:40:12;4.87;;;2.07;;
19687;SDS011;9993;52.008;4.732;2023-02-26T02:42:41;4.20;;;2.00;;
19687;SDS011;9993;52.008;4.732;2023-02-26T02:45:12;3.03;;;2.00;;
19687;SDS011;9993;52.008;4.732;2023-02-26T02:47:38;5.43;;;2.17;;
19687;SDS011;9993;52.008;4.732;2023-02-26T02:50:06;3.23;;;1.70;;
19687;SDS011;9993;52.008;4.732;2023-02-26T02:55:04;5.67;;;2.00;;
19687;SDS011;9993;52.008;4.732;2023-02-26T02:57:34;2.57;;;1.73;;
19687;SDS011;9993;52.008;4.732;2023-02-26T03:00:02;1.70;;;1.50;;
19687;SDS011;9993;52.008;4.732;2023-02-26T03:02:31;3.40;;;1.83;;
19687;SDS011;9993;52.008;4.732;2023-02-26T03:04:57;1.87;;;1.70;;
19687;SDS011;9993;52.008;4.732;2023-02-26T03:07:23;6.03;;;2.30;;
19687;SDS011;9993;52.008;4.732;2023-02-26T03:09:48;5.70;;;1.93;;
19687;SDS011;9993;52.008;4.732;2023-02-26T03:12:14;2.10;;;1.60;;
19687;SDS011;9993;52.008;4.732;2023-02-26T03:14:39;4.57;;;1.90;;
19687;SDS011;9993;52.008;4.732;2023-02-26T03:22:01;1.87;;;1.70;;
19687;SDS011;9993;52.008;4.732;2023-02-26T03:24:31;2.73;;;2.03;;
19687;SDS011;9993;52.008;4.732;2023-02-26T03:27:00;2.53;;;1.77;;
19687;SDS011;9993;52.008;4.732;2023-02-26T03:31:54;4.73;;;2.10;;
19687;SDS011;9993;52.008;4.732;2023-02-26T03:36:58;2.20;;;1.73;;
19687;SDS011;9993;52.008;4.732;2023-02-26T03:39:26;1.90;;;1.80;;
19687;SDS011;9993;52.008;4.732;2023-02-26T03:44:36;4.40;;;1.87;;
19687;SDS011;9993;52.008;4.732;2023-02-26T03:47:07;4.47;;;2.40;;
19687;SDS011;9993;52.008;4.732;2023-02-26T03:49:34;2.53;;;2.37;;
19687;SDS011;9993;52.008;4.732;2023-02-26T03:52:00;1.80;;;1.70;;
19687;SDS011;9993;52.008;4.732;2023-02-26T03:54:34;3.90;;;2.40;;
19687;SDS011;9993;52.008;4.732;2023-02-26T03:57:01;6.57;;;1.83;;
19687;SDS011;9993;52.008;4.732;2023-02-26T03:59:26;4.53;;;2.13;;
19687;SDS011;9993;52.008;4.732;2023-02-26T04:04:48;3.83;;;2.00;;
19687;SDS011;9993;52.008;4.732;2023-02-26T04:07:12;6.10;;;1.60;;
19687;SDS011;9993;52.008;4.732;2023-02-26T04:09:41;2.47;;;2.00;;
19687;SDS011;9993;52.008;4.732;2023-02-26T04:12:07;2.47;;;2.10;;
19687;SDS011;9993;52.008;4.732;2023-02-26T04:14:32;2.40;;;1.50;;
19687;SDS011;9993;52.008;4.732;2023-02-26T04:16:57;1.93;;;1.53;;
19687;SDS011;9993;52.008;4.732;2023-02-26T04:19:22;2.40;;;1.70;;
19687;SDS011;9993;52.008;4.732;2023-02-26T04:21:48;4.20;;;1.40;;
19687;SDS011;9993;52.008;4.732;2023-02-26T04:24:13;1.60;;;1.50;;
19687;SDS011;9993;52.008;4.732;2023-02-26T04:26:38;1.83;;;1.67;;
19687;SDS011;9993;52.008;4.732;2023-02-26T04:29:03;5.03;;;2.43;;
19687;SDS011;9993;52.008;4.732;2023-02-26T04:31:28;4.43;;;1.73;;
19687;SDS011;9993;52.008;4.732;2023-02-26T04:33:54;1.63;;;1.53;;
19687;SDS011;9993;52.008;4.732;2023-02-26T04:36:19;4.53;;;2.03;;
19687;SDS011;9993;52.008;4.732;2023-02-26T04:38:44;3.53;;;1.60;;
19687;SDS011;9993;52.008;4.732;2023-02-26T04:41:09;4.57;;;1.80;;
19687;SDS011;9993;52.008;4.732;2023-02-26T04:43:35;1.70;;;1.60;;
19687;SDS011;9993;52.008;4.732;2023-02-26T04:48:58;2.87;;;2.07;;
19687;SDS011;9993;52.008;4.732;2023-02-26T04:51:32;1.93;;;1.73;;
19687;SDS011;9993;52.008;4.732;2023-02-26T04:53:57;4.40;;;1.60;;
19687;SDS011;9993;52.008;4.732;2023-02-26T04:56:35;2.43;;;1.70;;
19687;SDS011;9993;52.008;4.732;2023-02-26T05:05:11;4.03;;;1.60;;
19687;SDS011;9993;52.008;4.732;2023-02-26T05:07:51;2.00;;;1.70;;
19687;SDS011;9993;52.008;4.732;2023-02-26T05:13:41;2.93;;;1.50;;
19687;SDS011;9993;52.008;4.732;2023-02-26T05:16:15;2.20;;;1.57;;
19687;SDS011;9993;52.008;4.732;2023-02-26T05:18:40;2.50;;;1.50;;
19687;SDS011;9993;52.008;4.732;2023-02-26T05:21:06;2.90;;;1.60;;
19687;SDS011;9993;52.008;4.732;2023-02-26T05:23:31;5.03;;;1.77;;
19687;SDS011;9993;52.008;4.732;2023-02-26T05:25:56;2.03;;;1.83;;
19687;SDS011;9993;52.008;4.732;2023-02-26T05:28:22;2.23;;;1.50;;
19687;SDS011;9993;52.008;4.732;2023-02-26T05:30:47;2.07;;;1.90;;
19687;SDS011;9993;52.008;4.732;2023-02-26T05:33:12;6.60;;;1.70;;
19687;SDS011;9993;52.008;4.732;2023-02-26T05:35:37;1.23;;;1.20;;
19687;SDS011;9993;52.008;4.732;2023-02-26T05:38:03;4.23;;;2.00;;
19687;SDS011;9993;52.008;4.732;2023-02-26T05:40:28;4.43;;;2.37;;
19687;SDS011;9993;52.008;4.732;2023-02-26T05:42:53;5.60;;;2.07;;
19687;SDS011;9993;52.008;4.732;2023-02-26T05:45:18;2.47;;;1.73;;
19687;SDS011;9993;52.008;4.732;2023-02-26T05:47:44;4.10;;;1.70;;
19687;SDS011;9993;52.008;4.732;2023-02-26T05:50:09;4.43;;;1.63;;
19687;SDS011;9993;52.008;4.732;2023-02-26T05:52:35;3.47;;;1.63;;
19687;SDS011;9993;52.008;4.732;2023-02-26T05:55:03;5.93;;;1.90;;
19687;SDS011;9993;52.008;4.732;2023-02-26T05:57:28;4.10;;;1.70;;
19687;SDS011;9993;52.008;4.732;2023-02-26T05:59:56;2.00;;;1.80;;
19687;SDS011;9993;52.008;4.732;2023-02-26T06:02:27;2.03;;;1.77;;
19687;SDS011;9993;52.008;4.732;2023-02-26T06:04:53;3.73;;;2.17;;
19687;SDS011;9993;52.008;4.732;2023-02-26T06:07:18;4.30;;;1.60;;
19687;SDS011;9993;52.008;4.732;2023-02-26T06:09:43;4.23;;;1.60;;
19687;SDS011;9993;52.008;4.732;2023-02-26T06:12:08;2.77;;;2.00;;
19687;SDS011;9993;52.008;4.732;2023-02-26T06:14:34;2.97;;;1.70;;
19687;SDS011;9993;52.008;4.732;2023-02-26T06:16:59;7.60;;;2.03;;
19687;SDS011;9993;52.008;4.732;2023-02-26T06:19:25;4.07;;;1.90;;
19687;SDS011;9993;52.008;4.732;2023-02-26T06:21:50;5.60;;;1.70;;
19687;SDS011;9993;52.008;4.732;2023-02-26T06:24:15;6.83;;;1.43;;
19687;SDS011;9993;52.008;4.732;2023-02-26T06:26:40;1.37;;;1.30;;
19687;SDS011;9993;52.008;4.732;2023-02-26T06:29:06;2.23;;;1.60;;
19687;SDS011;9993;52.008;4.732;2023-02-26T06:31:32;2.80;;;1.70;;
19687;SDS011;9993;52.008;4.732;2023-02-26T06:33:57;3.13;;;1.50;;
19687;SDS011;9993;52.008;4.732;2023-02-26T06:36:22;2.70;;;1.80;;
19687;SDS011;9993;52.008;4.732;2023-02-26T06:38:47;2.30;;;1.77;;
19687;SDS011;9993;52.008;4.732;2023-02-26T06:41:13;3.67;;;1.60;;
19687;SDS011;9993;52.008;4.732;2023-02-26T06:43:38;2.10;;;1.50;;
19687;SDS011;9993;52.008;4.732;2023-02-26T06:46:03;1.60;;;1.50;;
19687;SDS011;9993;52.008;4.732;2023-02-26T06:48:28;1.63;;;1.53;;
19687;SDS011;9993;52.008;4.732;2023-02-26T06:50:54;1.70;;;1.60;;
19687;SDS011;9993;52.008;4.732;2023-02-26T06:53:20;3.97;;;1.60;;
19687;SDS011;9993;52.008;4.732;2023-02-26T06:55:45;5.43;;;2.00;;
19687;SDS011;9993;52.008;4.732;2023-02-26T07:00:55;6.90;;;2.10;;
19687;SDS011;9993;52.008;4.732;2023-02-26T07:03:26;2.77;;;1.90;;
19687;SDS011;9993;52.008;4.732;2023-02-26T07:05:51;3.10;;;1.97;;
19687;SDS011;9993;52.008;4.732;2023-02-26T07:08:16;2.40;;;1.77;;
19687;SDS011;9993;52.008;4.732;2023-02-26T07:10:42;2.47;;;1.80;;
19687;SDS011;9993;52.008;4.732;2023-02-26T07:13:07;3.73;;;1.90;;
19687;SDS011;9993;52.008;4.732;2023-02-26T07:15:33;1.53;;;1.43;;
19687;SDS011;9993;52.008;4.732;2023-02-26T07:17:58;2.37;;;1.70;;
19687;SDS011;9993;52.008;4.732;2023-02-26T07:20:26;3.03;;;1.57;;
19687;SDS011;9993;52.008;4.732;2023-02-26T07:22:52;3.87;;;1.70;;
19687;SDS011;9993;52.008;4.732;2023-02-26T07:25:17;5.60;;;2.33;;
19687;SDS011;9993;52.008;4.732;2023-02-26T07:27:43;3.07;;;1.60;;
19687;SDS011;9993;52.008;4.732;2023-02-26T07:30:08;1.50;;;1.40;;
19687;SDS011;9993;52.008;4.732;2023-02-26T07:32:33;2.17;;;1.90;;
19687;SDS011;9993;52.008;4.732;2023-02-26T07:34:59;5.53;;;2.00;;
19687;SDS011;9993;52.008;4.732;2023-02-26T07:37:24;2.53;;;2.37;;
19687;SDS011;9993;52.008;4.732;2023-02-26T07:39:49;5.27;;;1.83;;
19687;SDS011;9993;52.008;4.732;2023-02-26T07:42:15;2.97;;;1.70;;
19687;SDS011;9993;52.008;4.732;2023-02-26T07:44:40;2.40;;;1.80;;
19687;SDS011;9993;52.008;4.732;2023-02-26T07:47:05;1.77;;;1.47;;
19687;SDS011;9993;52.008;4.732;2023-02-26T07:49:30;3.40;;;1.60;;
19687;SDS011;9993;52.008;4.732;2023-02-26T07:51:57;2.90;;;1.70;;
19687;SDS011;9993;52.008;4.732;2023-02-26T07:54:23;3.83;;;2.20;;
19687;SDS011;9993;52.008;4.732;2023-02-26T07:56:48;1.73;;;1.50;;
19687;SDS011;9993;52.008;4.732;2023-02-26T07:59:13;3.77;;;1.87;;
19687;SDS011;9993;52.008;4.732;2023-02-26T08:01:38;2.30;;;1.90;;
19687;SDS011;9993;52.008;4.732;2023-02-26T08:04:04;3.67;;;1.90;;
19687;SDS011;9993;52.008;4.732;2023-02-26T08:06:29;5.43;;;1.80;;
19687;SDS011;9993;52.008;4.732;2023-02-26T08:08:55;3.13;;;1.70;;
19687;SDS011;9993;52.008;4.732;2023-02-26T08:11:20;4.67;;;1.73;;
19687;SDS011;9993;52.008;4.732;2023-02-26T08:13:45;3.77;;;1.60;;
19687;SDS011;9993;52.008;4.732;2023-02-26T08:16:11;6.07;;;1.80;;
19687;SDS011;9993;52.008;4.732;2023-02-26T08:18:36;3.80;;;1.87;;
19687;SDS011;9993;52.008;4.732;2023-02-26T08:21:02;1.83;;;1.73;;
19687;SDS011;9993;52.008;4.732;2023-02-26T08:23:27;2.00;;;1.30;;
19687;SDS011;9993;52.008;4.732;2023-02-26T08:25:59;2.77;;;1.50;;
19687;SDS011;9993;52.008;4.732;2023-02-26T08:28:25;5.27;;;1.87;;
19687;SDS011;9993;52.008;4.732;2023-02-26T08:30:53;2.83;;;1.63;;
19687;SDS011;9993;52.008;4.732;2023-02-26T08:33:18;4.13;;;1.73;;
19687;SDS011;9993;52.008;4.732;2023-02-26T08:35:44;2.13;;;1.50;;
19687;SDS011;9993;52.008;4.732;2023-02-26T08:38:09;3.87;;;1.60;;
19687;SDS011;9993;52.008;4.732;2023-02-26T08:40:35;3.67;;;1.80;;
19687;SDS011;9993;52.008;4.732;2023-02-26T08:43:00;1.73;;;1.63;;
19687;SDS011;9993;52.008;4.732;2023-02-26T08:45:25;3.77;;;1.93;;
19687;SDS011;9993;52.008;4.732;2023-02-26T08:47:50;5.63;;;1.80;;
19687;SDS011;9993;52.008;4.732;2023-02-26T08:50:18;2.30;;;1.50;;
19687;SDS011;9993;52.008;4.732;2023-02-26T08:52:43;4.63;;;1.97;;
19687;SDS011;9993;52.008;4.732;2023-02-26T08:55:08;4.60;;;1.90;;
19687;SDS011;9993;52.008;4.732;2023-02-26T08:57:33;2.13;;;1.60;;
19687;SDS011;9993;52.008;4.732;2023-02-26T08:59:59;1.50;;;1.40;;
19687;SDS011;9993;52.008;4.732;2023-02-26T09:02:24;5.33;;;1.50;;
19687;SDS011;9993;52.008;4.732;2023-02-26T09:04:49;2.27;;;1.50;;
19687;SDS011;9993;52.008;4.732;2023-02-26T09:07:14;2.10;;;1.40;;
19687;SDS011;9993;52.008;4.732;2023-02-26T09:09:39;4.47;;;1.57;;
19687;SDS011;9993;52.008;4.732;2023-02-26T09:12:05;1.70;;;1.50;;
19687;SDS011;9993;52.008;4.732;2023-02-26T09:14:30;1.63;;;1.53;;
19687;SDS011;9993;52.008;4.732;2023-02-26T09:16:55;1.63;;;1.30;;
19687;SDS011;9993;52.008;4.732;2023-02-26T09:19:20;1.63;;;1.47;;
19687;SDS011;9993;52.008;4.732;2023-02-26T09:21:46;1.97;;;1.80;;
19687;SDS011;9993;52.008;4.732;2023-02-26T09:24:11;3.27;;;1.50;;
19687;SDS011;9993;52.008;4.732;2023-02-26T09:26:36;2.07;;;1.47;;
19687;SDS011;9993;52.008;4.732;2023-02-26T09:29:02;3.63;;;1.70;;
19687;SDS011;9993;52.008;4.732;2023-02-26T09:31:27;1.20;;;1.13;;
19687;SDS011;9993;52.008;4.732;2023-02-26T09:33:52;1.60;;;1.50;;
19687;SDS011;9993;52.008;4.732;2023-02-26T09:36:18;1.70;;;1.50;;
19687;SDS011;9993;52.008;4.732;2023-02-26T09:38:43;1.80;;;1.70;;
19687;SDS011;9993;52.008;4.732;2023-02-26T09:41:17;2.13;;;1.53;;
19687;SDS011;9993;52.008;4.732;2023-02-26T09:49:05;1.90;;;1.60;;
19687;SDS011;9993;52.008;4.732;2023-02-26T09:51:31;2.27;;;1.40;;
19687;SDS011;9993;52.008;4.732;2023-02-26T09:53:58;1.70;;;1.60;;
19687;SDS011;9993;52.008;4.732;2023-02-26T09:56:24;2.63;;;1.67;;
19687;SDS011;9993;52.008;4.732;2023-02-26T09:58:51;1.50;;;1.40;;
19687;SDS011;9993;52.008;4.732;2023-02-26T10:09:23;1.60;;;1.50;;
19687;SDS011;9993;52.008;4.732;2023-02-26T10:12:04;2.20;;;1.60;;
19687;SDS011;9993;52.008;4.732;2023-02-26T10:17:00;1.67;;;1.50;;
19687;SDS011;9993;52.008;4.732;2023-02-26T10:19:35;2.00;;;1.57;;
19687;SDS011;9993;52.008;4.732;2023-02-26T10:22:10;1.93;;;1.83;;
19687;SDS011;9993;52.008;4.732;2023-02-26T10:24:41;1.53;;;1.43;;
19687;SDS011;9993;52.008;4.732;2023-02-26T10:27:14;1.60;;;1.50;;
19687;SDS011;9993;52.008;4.732;2023-02-26T10:34:50;1.80;;;1.70;;
19687;SDS011;9993;52.008;4.732;2023-02-26T10:39:58;3.60;;;1.60;;
19687;SDS011;9993;52.008;4.732;2023-02-26T10:42:32;2.77;;;1.50;;
19687;SDS011;9993;52.008;4.732;2023-02-26T10:47:36;4.10;;;1.80;;
19687;SDS011;9993;52.008;4.732;2023-02-26T10:50:07;1.97;;;1.60;;
19687;SDS011;9993;52.008;4.732;2023-02-26T10:52:33;1.60;;;1.50;;
19687;SDS011;9993;52.008;4.732;2023-02-26T10:55:18;1.77;;;1.67;;
19687;SDS011;9993;52.008;4.732;2023-02-26T10:57:50;1.70;;;1.50;;
19687;SDS011;9993;52.008;4.732;2023-02-26T11:00:17;3.33;;;1.47;;
19687;SDS011;9993;52.008;4.732;2023-02-26T11:02:44;2.73;;;1.60;;
19687;SDS011;9993;52.008;4.732;2023-02-26T11:05:23;1.73;;;1.60;;
19687;SDS011;9993;52.008;4.732;2023-02-26T11:07:54;4.03;;;1.60;;
19687;SDS011;9993;52.008;4.732;2023-02-26T11:10:22;2.20;;;1.70;;
19687;SDS011;9993;52.008;4.732;2023-02-26T11:12:47;3.03;;;1.67;;
19687;SDS011;9993;52.008;4.732;2023-02-26T11:15:17;1.90;;;1.50;;
19687;SDS011;9993;52.008;4.732;2023-02-26T11:17:44;2.23;;;1.67;;
19687;SDS011;9993;52.008;4.732;2023-02-26T11:20:17;4.33;;;2.20;;
19687;SDS011;9993;52.008;4.732;2023-02-26T11:22:47;1.80;;;1.70;;
19687;SDS011;9993;52.008;4.732;2023-02-26T11:25:21;6.57;;;2.00;;
19687;SDS011;9993;52.008;4.732;2023-02-26T11:27:48;2.57;;;1.90;;
19687;SDS011;9993;52.008;4.732;2023-02-26T11:32:51;4.13;;;2.17;;
19687;SDS011;9993;52.008;4.732;2023-02-26T11:35:17;3.23;;;1.70;;
19687;SDS011;9993;52.008;4.732;2023-02-26T11:37:49;2.03;;;1.50;;
19687;SDS011;9993;52.008;4.732;2023-02-26T11:43:03;2.30;;;1.40;;
19687;SDS011;9993;52.008;4.732;2023-02-26T11:45:27;1.60;;;1.50;;
19687;SDS011;9993;52.008;4.732;2023-02-26T11:47:59;1.50;;;1.40;;
19687;SDS011;9993;52.008;4.732;2023-02-26T11:50:26;2.33;;;1.50;;
19687;SDS011;9993;52.008;4.732;2023-02-26T11:52:56;4.40;;;1.90;;
19687;SDS011;9993;52.008;4.732;2023-02-26T11:55:31;1.93;;;1.50;;
19687;SDS011;9993;52.008;4.732;2023-02-26T11:57:57;1.80;;;1.40;;
19687;SDS011;9993;52.008;4.732;2023-02-26T12:00:24;1.53;;;1.33;;
19687;SDS011;9993;52.008;4.732;2023-02-26T12:02:49;4.70;;;1.67;;
19687;SDS011;9993;52.008;4.732;2023-02-26T12:05:15;2.80;;;1.87;;
19687;SDS011;9993;52.008;4.732;2023-02-26T12:07:41;4.13;;;2.03;;
19687;SDS011;9993;52.008;4.732;2023-02-26T12:10:14;1.90;;;1.70;;
19687;SDS011;9993;52.008;4.732;2023-02-26T12:15:16;2.60;;;1.77;;
19687;SDS011;9993;52.008;4.732;2023-02-26T12:20:32;1.90;;;1.70;;
19687;SDS011;9993;52.008;4.732;2023-02-26T12:23:18;2.97;;;1.70;;
19687;SDS011;9993;52.008;4.732;2023-02-26T12:39:02;2.40;;;1.40;;
19687;SDS011;9993;52.008;4.732;2023-02-26T12:41:35;3.60;;;1.97;;
19687;SDS011;9993;52.008;4.732;2023-02-26T12:44:08;1.73;;;1.63;;
19687;SDS011;9993;52.008;4.732;2023-02-26T12:51:58;3.67;;;1.50;;
19687;SDS011;9993;52.008;4.732;2023-02-26T12:59:23;1.77;;;1.63;;
19687;SDS011;9993;52.008;4.732;2023-02-26T13:09:39;1.90;;;1.80;;
19687;SDS011;9993;52.008;4.732;2023-02-26T13:12:10;1.60;;;1.47;;
19687;SDS011;9993;52.008;4.732;2023-02-26T13:14:54;2.47;;;1.50;;
19687;SDS011;9993;52.008;4.732;2023-02-26T13:20:15;1.77;;;1.50;;
19687;SDS011;9993;52.008;4.732;2023-02-26T13:22:43;2.53;;;1.77;;
19687;SDS011;9993;52.008;4.732;2023-02-26T13:27:44;1.67;;;1.43;;
19687;SDS011;9993;52.008;4.732;2023-02-26T13:32:44;2.90;;;1.77;;
19687;SDS011;9993;52.008;4.732;2023-02-26T13:37:45;3.47;;;1.73;;
19687;SDS011;9993;52.008;4.732;2023-02-26T13:48:08;4.13;;;1.60;;
19687;SDS011;9993;52.008;4.732;2023-02-26T13:58:34;1.73;;;1.33;;
19687;SDS011;9993;52.008;4.732;2023-02-26T14:03:52;3.67;;;1.47;;
19687;SDS011;9993;52.008;4.732;2023-02-26T14:06:22;2.47;;;1.73;;
19687;SDS011;9993;52.008;4.732;2023-02-26T14:08:49;3.47;;;1.50;;
19687;SDS011;9993;52.008;4.732;2023-02-26T14:13:41;3.00;;;1.67;;
19687;SDS011;9993;52.008;4.732;2023-02-26T14:16:10;2.80;;;1.50;;
19687;SDS011;9993;52.008;4.732;2023-02-26T14:23:45;2.80;;;1.50;;
19687;SDS011;9993;52.008;4.732;2023-02-26T14:26:14;3.20;;;1.70;;
19687;SDS011;9993;52.008;4.732;2023-02-26T14:28:41;3.10;;;1.80;;
19687;SDS011;9993;52.008;4.732;2023-02-26T14:31:17;2.87;;;1.87;;
19687;SDS011;9993;52.008;4.732;2023-02-26T14:36:13;2.13;;;1.97;;
19687;SDS011;9993;52.008;4.732;2023-02-26T14:38:40;2.07;;;1.60;;
19687;SDS011;9993;52.008;4.732;2023-02-26T14:43:43;2.40;;;1.90;;
19687;SDS011;9993;52.008;4.732;2023-02-26T14:46:09;2.00;;;1.53;;
19687;SDS011;9993;52.008;4.732;2023-02-26T14:48:35;1.80;;;1.47;;
19687;SDS011;9993;52.008;4.732;2023-02-26T14:53:33;3.47;;;1.80;;
19687;SDS011;9993;52.008;4.732;2023-02-26T14:58:33;2.17;;;1.67;;
19687;SDS011;9993;52.008;4.732;2023-02-26T15:01:14;1.93;;;1.70;;
19687;SDS011;9993;52.008;4.732;2023-02-26T15:22:11;2.83;;;1.67;;
19687;SDS011;9993;52.008;4.732;2023-02-26T15:24:38;1.97;;;1.50;;
19687;SDS011;9993;52.008;4.732;2023-02-26T15:27:04;1.50;;;1.40;;
19687;SDS011;9993;52.008;4.732;2023-02-26T15:29:33;4.53;;;1.80;;
19687;SDS011;9993;52.008;4.732;2023-02-26T15:32:04;2.07;;;1.70;;
19687;SDS011;9993;52.008;4.732;2023-02-26T15:34:29;1.90;;;1.40;;
19687;SDS011;9993;52.008;4.732;2023-02-26T15:36:55;2.83;;;1.40;;
19687;SDS011;9993;52.008;4.732;2023-02-26T15:39:22;2.00;;;1.43;;
19687;SDS011;9993;52.008;4.732;2023-02-26T15:41:48;2.13;;;1.57;;
19687;SDS011;9993;52.008;4.732;2023-02-26T15:44:15;2.07;;;1.60;;
19687;SDS011;9993;52.008;4.732;2023-02-26T15:46:43;2.97;;;2.03;;
19687;SDS011;9993;52.008;4.732;2023-02-26T15:49:22;2.10;;;1.37;;
19687;SDS011;9993;52.008;4.732;2023-02-26T15:51:48;2.50;;;1.50;;
19687;SDS011;9993;52.008;4.732;2023-02-26T15:54:17;3.10;;;1.60;;
19687;SDS011;9993;52.008;4.732;2023-02-26T15:56:44;3.33;;;1.33;;
19687;SDS011;9993;52.008;4.732;2023-02-26T15:59:10;3.53;;;1.77;;
19687;SDS011;9993;52.008;4.732;2023-02-26T16:01:38;4.07;;;1.97;;
19687;SDS011;9993;52.008;4.732;2023-02-26T16:04:06;3.10;;;1.63;;
19687;SDS011;9993;52.008;4.732;2023-02-26T16:06:33;3.43;;;1.60;;
19687;SDS011;9993;52.008;4.732;2023-02-26T16:08:59;4.03;;;1.67;;
19687;SDS011;9993;52.008;4.732;2023-02-26T16:11:26;1.73;;;1.43;;
19687;SDS011;9993;52.008;4.732;2023-02-26T16:13:53;3.37;;;1.53;;
19687;SDS011;9993;52.008;4.732;2023-02-26T16:16:25;1.43;;;1.33;;
19687;SDS011;9993;52.008;4.732;2023-02-26T16:18:51;3.03;;;1.73;;
19687;SDS011;9993;52.008;4.732;2023-02-26T16:21:28;1.57;;;1.47;;
19687;SDS011;9993;52.008;4.732;2023-02-26T16:23:55;2.13;;;1.90;;
19687;SDS011;9993;52.008;4.732;2023-02-26T16:26:32;4.03;;;2.10;;
19687;SDS011;9993;52.008;4.732;2023-02-26T16:29:02;3.43;;;1.93;;
19687;SDS011;9993;52.008;4.732;2023-02-26T16:31:28;3.07;;;1.70;;
19687;SDS011;9993;52.008;4.732;2023-02-26T16:34:03;3.67;;;2.03;;
19687;SDS011;9993;52.008;4.732;2023-02-26T16:36:30;2.93;;;1.63;;
19687;SDS011;9993;52.008;4.732;2023-02-26T16:38:58;3.37;;;1.70;;
19687;SDS011;9993;52.008;4.732;2023-02-26T16:41:24;1.60;;;1.50;;
19687;SDS011;9993;52.008;4.732;2023-02-26T16:43:51;3.53;;;1.90;;
19687;SDS011;9993;52.008;4.732;2023-02-26T16:49:02;4.43;;;1.80;;
19687;SDS011;9993;52.008;4.732;2023-02-26T16:51:29;2.50;;;1.70;;
19687;SDS011;9993;52.008;4.732;2023-02-26T16:53:57;3.40;;;1.50;;
19687;SDS011;9993;52.008;4.732;2023-02-26T16:56:33;3.03;;;1.63;;
19687;SDS011;9993;52.008;4.732;2023-02-26T17:01:27;2.13;;;1.60;;
19687;SDS011;9993;52.008;4.732;2023-02-26T17:03:57;3.40;;;1.80;;
19687;SDS011;9993;52.008;4.732;2023-02-26T17:06:24;5.67;;;1.83;;
19687;SDS011;9993;52.008;4.732;2023-02-26T17:08:54;5.43;;;1.90;;
19687;SDS011;9993;52.008;4.732;2023-02-26T17:11:30;4.87;;;1.80;;
19687;SDS011;9993;52.008;4.732;2023-02-26T17:14:12;2.50;;;1.77;;
19687;SDS011;9993;52.008;4.732;2023-02-26T17:16:39;1.67;;;1.57;;
19687;SDS011;9993;52.008;4.732;2023-02-26T17:19:04;1.93;;;1.80;;
19687;SDS011;9993;52.008;4.732;2023-02-26T17:21:30;2.63;;;1.90;;
19687;SDS011;9993;52.008;4.732;2023-02-26T17:23:55;2.60;;;1.77;;
19687;SDS011;9993;52.008;4.732;2023-02-26T17:26:21;3.03;;;1.40;;
19687;SDS011;9993;52.008;4.732;2023-02-26T17:28:47;2.83;;;2.00;;
19687;SDS011;9993;52.008;4.732;2023-02-26T17:31:12;2.47;;;1.70;;
19687;SDS011;9993;52.008;4.732;2023-02-26T17:33:39;5.40;;;1.60;;
19687;SDS011;9993;52.008;4.732;2023-02-26T17:36:05;3.10;;;1.90;;
19687;SDS011;9993;52.008;4.732;2023-02-26T17:38:31;2.80;;;2.40;;
19687;SDS011;9993;52.008;4.732;2023-02-26T17:40:57;3.17;;;2.50;;
19687;SDS011;9993;52.008;4.732;2023-02-26T17:43:22;1.87;;;1.77;;
19687;SDS011;9993;52.008;4.732;2023-02-26T17:45:48;4.30;;;2.10;;
19687;SDS011;9993;52.008;4.732;2023-02-26T17:48:14;3.80;;;2.60;;
19687;SDS011;9993;52.008;4.732;2023-02-26T17:53:04;3.27;;;1.80;;
19687;SDS011;9993;52.008;4.732;2023-02-26T17:55:30;3.00;;;1.87;;
19687;SDS011;9993;52.008;4.732;2023-02-26T17:57:56;3.40;;;1.80;;
19687;SDS011;9993;52.008;4.732;2023-02-26T18:00:21;3.13;;;1.90;;
19687;SDS011;9993;52.008;4.732;2023-02-26T18:02:47;3.93;;;2.03;;
19687;SDS011;9993;52.008;4.732;2023-02-26T18:05:12;3.47;;;2.10;;
19687;SDS011;9993;52.008;4.732;2023-02-26T18:07:38;4.93;;;2.53;;
19687;SDS011;9993;52.008;4.732;2023-02-26T18:10:03;3.40;;;2.03;;
19687;SDS011;9993;52.008;4.732;2023-02-26T18:12:29;4.17;;;2.00;;
19687;SDS011;9993;52.008;4.732;2023-02-26T18:14:54;4.17;;;2.07;;
19687;SDS011;9993;52.008;4.732;2023-02-26T18:17:22;3.50;;;1.60;;
19687;SDS011;9993;52.008;4.732;2023-02-26T18:19:47;2.97;;;1.80;;
19687;SDS011;9993;52.008;4.732;2023-02-26T18:22:16;2.07;;;1.77;;
19687;SDS011;9993;52.008;4.732;2023-02-26T18:24:42;2.30;;;1.90;;
19687;SDS011;9993;52.008;4.732;2023-02-26T18:27:15;2.20;;;1.93;;
19687;SDS011;9993;52.008;4.732;2023-02-26T18:29:40;4.00;;;2.27;;
19687;SDS011;9993;52.008;4.732;2023-02-26T18:32:07;2.97;;;1.90;;
19687;SDS011;9993;52.008;4.732;2023-02-26T18:34:33;4.17;;;2.03;;
19687;SDS011;9993;52.008;4.732;2023-02-26T18:36:58;3.67;;;1.80;;